Flight Track Log - Related Links

Times and Time Zones

All times are in EDT time to prevent confusion due to time zone crossing. See the ASA525 flight status page for this flight to view local times or setup timezone preferences in your user account.

Time Position Orientation Groundspeed Altitude Reporting Facility
EDT Latitude Longitude Course Direction KTS MPH feet Rate Location/Type
Sun 02:10:31 PM 34.1667 -118.3833 338° Northwest 193 222 2,900  Level Southern California TRACON
Sun 02:11:37 PM 34.1167 -118.4333 220° Southwest 232 267 6,000 2,500 Climbing Southern California TRACON
Sun 02:12:19 PM 34.1228 -118.4803 279° West 249 287 7,400 2,654 Climbing Los Angeles Center
Sun 02:13:21 PM 34.2000 -118.5297 332° Northwest 263 303 10,600 2,806 Climbing Los Angeles Center
Sun 02:14:23 PM 34.2750 -118.5711 335° Northwest 293 337 13,200 2,613 Climbing Los Angeles Center
Sun 02:15:00 PM 34.6073 -118.7536 338° Northwest  Level FlightAware Approximate
Sun 02:15:25 PM 34.3561 -118.6144 336° Northwest 315 362 16,000  Level Los Angeles Center
Sun 02:16:00 PM 34.7178 -118.8089 338° Northwest  Level FlightAware Approximate
Sun 02:16:27 PM 34.4450 -118.6631 336° Northwest 350 403 19,000  Level Los Angeles Center
Sun 02:17:29 PM 34.5372 -118.7131 336° Northwest 366 421 21,700 2,544 Climbing Los Angeles Center
Sun 02:18:32 PM 34.6317 -118.7678 335° Northwest 379 436 24,300 2,400 Climbing Los Angeles Center
Sun 02:19:34 PM 34.7586 -118.8161 343° North 405 466 26,700 1,887 Climbing Los Angeles Center
Sun 02:20:36 PM 34.8736 -118.8486 347° North 423 487 28,200 1,210 Climbing Los Angeles Center
Sun 02:21:38 PM 35.0108 -118.8889 346° North 459 528 29,200 1,210 Climbing Los Angeles Center
Sun 02:22:40 PM 35.1383 -118.9269 346° North 472 543 30,700 1,210 Climbing Los Angeles Center
Sun 02:23:42 PM 35.2672 -118.9625 347° North 475 547 31,700 629 Climbing Los Angeles Center
Sun 02:24:44 PM 35.3961 -119.0017 346° North 477 549 32,000 145 Climbing Los Angeles Center
Sun 02:25:46 PM 35.5228 -119.0403 346° North 473 544 32,000 823 Level Los Angeles Center
Sun 02:26:48 PM 35.6756 -119.0858 346° North 472 543 33,700 1,440 Climbing Los Angeles Center
Sun 02:27:51 PM 35.8072 -119.1258 346° North 483 556 35,000 1,008 Climbing Los Angeles Center
Sun 02:28:53 PM 35.9417 -119.1667 346° North 494 568 35,800 574 Climbing Los Angeles Center
Sun 02:29:25 PM 36.0192 -119.1889 347° North 496 571 35,900 129 Climbing Oakland Center
Sun 02:30:26 PM 36.1528 -119.2267 347° North 494 568 36,000 49 Climbing Oakland Center
Sun 02:31:28 PM 36.2861 -119.2689 346° North 495 570 36,000  Level Oakland Center
Sun 02:32:30 PM 36.4192 -119.3097 346° North 495 570 36,000  Level Oakland Center
Sun 02:33:32 PM 36.5536 -119.3511 346° North 498 573 36,000  Level Oakland Center
Sun 02:34:33 PM 36.6875 -119.3919 346° North 498 573 36,000  Level Oakland Center
Sun 02:35:35 PM 36.8486 -119.4419 346° North 499 574 36,000  Level Oakland Center
Sun 02:36:37 PM 36.9822 -119.4839 346° North 496 571 36,000  Level Oakland Center
Sun 02:37:39 PM 37.1167 -119.5261 346° North 498 573 36,000  Level Oakland Center
Sun 02:38:40 PM 37.2519 -119.5675 346° North 500 575 36,000  Level Oakland Center
Sun 02:39:42 PM 37.3842 -119.6092 346° North 497 572 36,000  Level Oakland Center
Sun 02:40:44 PM 37.5181 -119.6519 346° North 496 571 36,000  Level Oakland Center
Sun 02:41:46 PM 37.6794 -119.7025 346° North 497 572 36,000  Level Oakland Center
Sun 02:42:47 PM 37.8136 -119.7447 346° North 497 572 36,000  Level Oakland Center
Sun 02:43:49 PM 37.9458 -119.7864 346° North 492 566 36,000  Level Oakland Center
Sun 02:44:51 PM 38.0797 -119.8292 346° North 495 570 36,000  Level Oakland Center
Sun 02:45:53 PM 38.2122 -119.8708 346° North 493 567 36,000  Level Oakland Center
Sun 02:46:54 PM 38.3439 -119.9131 346° North 490 564 36,000  Level Oakland Center
Sun 02:47:56 PM 38.4753 -119.9556 346° North 490 564 36,000  Level Oakland Center
Sun 02:48:58 PM 38.6325 -120.0067 346° North 487 560 36,000  Level Oakland Center
Sun 02:50:00 PM 38.7622 -120.0483 346° North 485 558 36,000  Level Oakland Center
Sun 02:51:02 PM 38.8928 -120.0914 346° North 486 559 36,000  Level Oakland Center
Sun 02:52:04 PM 39.0222 -120.1331 346° North 484 557 36,000  Level Oakland Center
Sun 02:53:06 PM 39.1508 -120.1758 346° North 480 552 36,000  Level Oakland Center
Sun 02:54:08 PM 39.2811 -120.2181 346° North 482 555 36,000  Level Oakland Center
Sun 02:55:09 PM 39.4353 -120.2697 345° North 480 552 36,000  Level Oakland Center
Sun 02:56:11 PM 39.5622 -120.3125 345° North 475 547 36,000  Level Oakland Center
Sun 02:57:13 PM 39.6867 -120.3536 346° North 466 536 36,000  Level Oakland Center
Sun 02:58:15 PM 39.8100 -120.3950 346° North 461 531 36,000  Level Oakland Center
Sun 02:59:17 PM 39.9311 -120.4353 346° North 453 521 36,000  Level Oakland Center
Sun 03:00:19 PM 40.0622 -120.4789 346° North 455 524 36,000  Level Oakland Center
Sun 03:01:21 PM 40.1822 -120.5192 346° North 450 518 36,000  Level Oakland Center
Sun 03:02:23 PM 40.3028 -120.5606 345° North 449 517 36,000  Level Oakland Center
Sun 03:03:25 PM 40.4461 -120.6081 346° North 446 513 36,000  Level Oakland Center
Sun 03:04:24 PM 40.5478 -120.6436 345° North 447 514 36,000  Level Seattle Center
Sun 03:05:28 PM 40.6878 -120.6911 346° North 443 510 36,000  Level Oakland Center
Sun 03:06:30 PM 40.8044 -120.7314 345° North 436 502 36,000  Level Oakland Center
Sun 03:07:29 PM 40.9228 -120.7739 345° North 435 501 36,000  Level Seattle Center
Sun 03:08:30 PM 41.0375 -120.8150 345° North 430 495 36,000  Level Seattle Center
Sun 03:09:31 PM 41.1531 -120.8564 345° North 430 495 36,000  Level Seattle Center
Sun 03:10:33 PM 41.2692 -120.8956 346° North 430 495 36,000  Level Seattle Center
Sun 03:11:34 PM 41.3828 -120.9350 345° North 425 489 36,000  Level Seattle Center
Sun 03:12:36 PM 41.5197 -120.9847 345° North 426 490 36,000 49 Level Seattle Center
Sun 03:13:37 PM 41.6342 -121.0253 345° North 428 493 36,100  Climbing Seattle Center
Sun 03:14:39 PM 41.7467 -121.0656 345° North 420 483 36,000 -49 Descending Seattle Center
Sun 03:15:40 PM 41.8600 -121.1069 345° North 423 487 36,000  Level Seattle Center
Sun 03:16:42 PM 41.9733 -121.1461 346° North 425 489 36,000  Level Seattle Center
Sun 03:17:43 PM 42.0894 -121.1883 345° North 434 499 36,000  Level Seattle Center
Sun 03:18:45 PM 42.2053 -121.2294 345° North 435 501 36,000  Level Seattle Center
Sun 03:19:46 PM 42.3442 -121.2800 345° North 436 502 36,000  Level Seattle Center
Sun 03:20:48 PM 42.4597 -121.3228 345° North 434 499 36,000  Level Seattle Center
Sun 03:21:49 PM 42.5756 -121.3644 345° North 432 497 36,000  Level Seattle Center
Sun 03:22:51 PM 42.6914 -121.4081 345° North 434 499 36,000  Level Seattle Center
Sun 03:23:52 PM 42.8072 -121.4508 345° North 433 498 36,000  Level Seattle Center
Sun 03:24:54 PM 42.9217 -121.4925 345° North 429 494 36,000  Level Seattle Center
Sun 03:25:55 PM 43.0361 -121.5364 344° North 429 494 36,000  Level Seattle Center
Sun 03:26:57 PM 43.1725 -121.5850 345° North 424 488 36,000  Level Seattle Center
Sun 03:27:58 PM 43.2875 -121.6281 345° North 426 490 36,000  Level Seattle Center
Sun 03:28:59 PM 43.4011 -121.6717 344° North 426 490 36,000  Level Seattle Center
Sun 03:30:01 PM 43.5153 -121.7133 345° North 426 490 36,000  Level Seattle Center
Sun 03:31:02 PM 43.6283 -121.7594 344° North 422 486 36,000  Level Seattle Center
Sun 03:32:04 PM 43.7425 -121.8025 345° North 424 488 36,000  Level Seattle Center
Sun 03:33:05 PM 43.8731 -121.8503 345° North 430 495 36,000  Level Seattle Center
Sun 03:34:07 PM 43.9881 -121.8928 345° North 430 495 36,000  Level Seattle Center
Sun 03:35:08 PM 44.1036 -121.9358 345° North 431 496 36,000  Level Seattle Center
Sun 03:36:09 PM 44.2161 -121.9817 344° North 426 490 36,000  Level Seattle Center
Sun 03:37:11 PM 44.3303 -122.0253 345° North 427 491 36,000  Level Seattle Center
Sun 03:38:12 PM 44.4447 -122.0692 345° North 427 491 36,000  Level Seattle Center
Sun 03:39:14 PM 44.5592 -122.1139 344° North 428 493 36,000  Level Seattle Center
Sun 03:40:15 PM 44.6950 -122.1675 344° North 425 489 36,000  Level Seattle Center
Sun 03:41:16 PM 44.8089 -122.2131 344° North 428 493 36,000  Level Seattle Center
Sun 03:42:18 PM 44.9097 -122.2550 344° North 416 479 36,000  Level Seattle Center
Sun 03:43:19 PM 45.0233 -122.2994 345° North 424 488 36,000  Level Seattle Center
Sun 03:44:20 PM 45.1378 -122.3453 344° North 429 494 36,000  Level Seattle Center
Sun 03:45:22 PM 45.2742 -122.3983 345° North 428 493 36,000  Level Seattle Center
Sun 03:46:23 PM 45.3869 -122.4444 344° North 425 489 36,000  Level Seattle Center
Sun 03:47:24 PM 45.5000 -122.4897 344° North 425 489 36,000  Level Seattle Center
Sun 03:48:26 PM 45.6133 -122.5350 344° North 424 488 36,000  Level Seattle Center
Sun 03:49:27 PM 45.7272 -122.5817 344° North 426 490 36,000  Level Seattle Center
Sun 03:50:29 PM 45.8411 -122.6131 349° North 422 486 36,000 -244 Level Seattle Center
Sun 03:51:30 PM 45.9569 -122.6422 350° North 423 487 35,500 -1,377 Descending Seattle Center
Sun 03:52:31 PM 46.0714 -122.6719 350° North 420 483 33,200 -2,780 Descending Seattle Center
Sun 03:53:33 PM 46.2097 -122.7003 352° North 421 484 29,800 -2,829 Descending Seattle Center
Sun 03:54:34 PM 46.3261 -122.7225 352° North 425 489 27,400 -2,311 Descending Seattle Center
Sun 03:55:35 PM 46.4411 -122.7189 North 419 482 25,100 -2,213 Descending Seattle Center
Sun 03:56:36 PM 46.5522 -122.7142 North 404 465 22,900 -2,098 Descending Seattle Center
Sun 03:57:38 PM 46.6606 -122.7119 North 393 452 20,800 -2,049 Descending Seattle Center
Sun 03:58:39 PM 46.7664 -122.7067 North 384 442 18,700 -2,057 Descending Seattle Center
Sun 03:59:23 PM 46.8531 -122.6600 20° North 375 432 17,200 -2,114 Descending Seattle Center
Sun 04:00:24 PM 46.9358 -122.5667 38° Northeast 376 433 15,000 -1,770 Descending Seattle Center
Sun 04:01:25 PM 47.0311 -122.5217 18° North 350 403 13,600 -1,475 Descending Seattle Center
Sun 04:02:26 PM 47.1214 -122.4919 13° North 330 380 12,000 -1,594 Descending Seattle Center
Sun 04:03:33 PM 47.2236 -122.4753 North 317 365 10,200 -1,180 Descending Seattle Center
Sun 04:04:28 PM 47.2986 -122.4639 North 293 337 9,600 -983 Descending Seattle Center
Sun 04:05:29 PM 47.3742 -122.4553 North 268 308 8,300 -1,031 Descending Seattle Center
Sun 04:06:36 PM 47.4500 -122.4564 359° North 245 282 7,400 -885 Descending Seattle Center
Sun 04:07:31 PM 47.5144 -122.4569 360° North 247 284 6,500 -1,131 Descending Seattle Center
Sun 04:08:38 PM 47.5842 -122.4514 North 228 262 5,100 -1,328 Descending Seattle Center
Sun 04:09:33 PM 47.6078 -122.3858 62° Northeast 219 252 3,800 -1,190 Descending Seattle Center
Sun 04:10:34 PM 47.5811 -122.3250 123° Southeast 169 194 2,800 -1,033 Descending Seattle Center
Sun 04:11:35 PM 47.5331 -122.3189 175° South 158 182 1,700 -934 Descending Seattle Center
Sun 04:12:36 PM 47.4881 -122.3172 179° South 157 181 900 -545 Descending Seattle Center
Sun 04:13:58 PM 47.4389 -122.3186 181° South 141 162 400 -366 Descending Seattle Center

Login

Don't have an account? Register now (free) for customized features, flight alerts, and more!